createdAt,value
2018-03-06T00:00:48.157Z,1.00
2018-03-06T00:03:17.554Z,1.00
2018-03-06T00:05:45.689Z,1.10
2018-03-06T00:08:13.964Z,1.20
2018-03-06T00:10:42.099Z,1.10
2018-03-06T00:13:11.025Z,1.10
2018-03-06T00:15:39.159Z,1.10
2018-03-06T00:18:08.096Z,1.00
2018-03-06T00:20:36.236Z,1.00
2018-03-06T00:23:05.156Z,0.90
2018-03-06T00:25:33.311Z,0.90
2018-03-06T00:28:01.473Z,1.00
2018-03-06T00:30:30.373Z,0.70
2018-03-06T00:32:59.294Z,0.40
2018-03-06T00:35:27.428Z,0.40
2018-03-06T00:37:56.364Z,0.50
2018-03-06T00:40:24.486Z,0.50
2018-03-06T00:42:52.645Z,0.60
2018-03-06T00:45:21.652Z,0.70
2018-03-06T00:47:50.560Z,0.60
2018-03-06T00:50:19.758Z,0.70
2018-03-06T00:52:47.919Z,0.70
2018-03-06T00:55:16.822Z,0.70
2018-03-06T00:57:45.713Z,0.70
2018-03-06T01:00:14.640Z,0.70
2018-03-06T01:02:42.785Z,0.70
2018-03-06T01:05:10.984Z,0.70
2018-03-06T01:07:39.122Z,0.90
2018-03-06T01:10:08.043Z,0.70
2018-03-06T01:12:36.177Z,0.70
2018-03-06T01:15:05.101Z,0.70
2018-03-06T01:17:33.235Z,0.60
2018-03-06T01:20:01.375Z,0.70
2018-03-06T01:22:29.508Z,0.70
2018-03-06T01:25:00.261Z,0.70
2018-03-06T01:27:28.400Z,0.70
2018-03-06T01:29:57.312Z,0.60
2018-03-06T01:32:26.901Z,0.60
2018-03-06T01:34:55.811Z,0.60
2018-03-06T01:37:23.952Z,0.60
2018-03-06T01:39:52.108Z,0.70
2018-03-06T01:42:20.249Z,0.70
2018-03-06T01:44:48.427Z,0.70
2018-03-06T01:47:16.566Z,0.60
2018-03-06T01:49:44.728Z,0.60
2018-03-06T01:52:13.636Z,0.30
2018-03-06T01:54:41.802Z,0.30
2018-03-06T01:57:09.953Z,0.40
2018-03-06T01:59:38.104Z,0.40
2018-03-06T02:02:06.229Z,0.30
2018-03-06T02:04:35.147Z,0.10
2018-03-06T02:07:03.295Z,0.10
2018-03-06T02:09:31.433Z,0.10
2018-03-06T02:11:59.608Z,0.10
2018-03-06T02:14:27.747Z,0.00
2018-03-06T02:16:57.360Z,-0.30
2018-03-06T02:19:25.509Z,-0.30
2018-03-06T02:21:53.652Z,-0.40
2018-03-06T02:24:22.557Z,0.10
2018-03-06T02:26:51.481Z,0.00
2018-03-06T02:29:19.649Z,0.00
2018-03-06T02:31:47.816Z,0.00
2018-03-06T02:34:15.924Z,0.00
2018-03-06T02:36:44.757Z,-0.10
2018-03-06T02:39:13.666Z,0.00
2018-03-06T02:41:41.812Z,0.00
2018-03-06T02:44:10.703Z,0.00
2018-03-06T02:46:39.736Z,0.00
2018-03-06T02:49:08.306Z,0.00
2018-03-06T02:51:36.474Z,0.00
2018-03-06T02:54:04.607Z,0.00
2018-03-06T02:56:32.744Z,0.00
2018-03-06T02:59:00.885Z,0.00
2018-03-06T03:01:29.802Z,0.10
2018-03-06T03:03:57.935Z,0.10
2018-03-06T03:06:26.864Z,0.30
2018-03-06T03:08:54.987Z,0.20
2018-03-06T03:11:23.124Z,0.20
2018-03-06T03:13:51.274Z,0.10
2018-03-06T03:16:19.434Z,0.10
2018-03-06T03:18:48.337Z,0.00
2018-03-06T03:21:16.552Z,0.00
2018-03-06T03:23:45.881Z,0.00
2018-03-06T03:26:14.035Z,0.00
2018-03-06T03:28:42.177Z,0.00
2018-03-06T03:31:10.691Z,0.00
2018-03-06T03:33:38.825Z,0.00
2018-03-06T03:36:06.962Z,-0.10
2018-03-06T03:38:35.910Z,-0.20
2018-03-06T03:41:04.047Z,-0.10
2018-03-06T03:43:32.308Z,-0.20
2018-03-06T03:46:01.220Z,-0.20
2018-03-06T03:48:29.388Z,-0.20
2018-03-06T03:50:58.288Z,-0.10
2018-03-06T03:53:26.452Z,-0.20
2018-03-06T03:55:54.583Z,-0.10
2018-03-06T03:58:23.177Z,0.00
2018-03-06T04:00:51.331Z,-0.10
2018-03-06T04:03:19.483Z,0.00
2018-03-06T04:05:47.611Z,0.00
2018-03-06T04:08:16.347Z,-0.10
2018-03-06T04:10:44.486Z,-0.10
2018-03-06T04:13:13.428Z,-0.20
2018-03-06T04:15:41.560Z,-0.30
2018-03-06T04:18:09.719Z,-0.30
2018-03-06T04:20:38.620Z,0.00
2018-03-06T04:23:07.965Z,-0.10
2018-03-06T04:25:36.126Z,-0.20
2018-03-06T04:28:04.812Z,-0.20
2018-03-06T04:30:34.521Z,-0.20
2018-03-06T04:33:02.684Z,-0.10
2018-03-06T04:35:30.816Z,-0.20
2018-03-06T04:38:00.194Z,-0.10
2018-03-06T04:40:28.337Z,-0.10
2018-03-06T04:42:56.504Z,-0.10
2018-03-06T04:45:24.651Z,-0.10
2018-03-06T04:47:53.592Z,-0.40
2018-03-06T04:50:21.722Z,-0.40
2018-03-06T04:52:51.846Z,-0.20
2018-03-06T04:55:21.478Z,-0.20
2018-03-06T04:57:49.649Z,-0.30
2018-03-06T05:00:17.805Z,-0.20
2018-03-06T05:02:46.733Z,-0.40
2018-03-06T05:05:14.885Z,-0.40
2018-03-06T05:07:43.076Z,-0.30
2018-03-06T05:10:11.218Z,-0.30
2018-03-06T05:12:39.419Z,-0.20
2018-03-06T05:15:07.919Z,-0.20
2018-03-06T05:17:36.332Z,-0.20
2018-03-06T05:20:04.543Z,-0.30
2018-03-06T05:22:32.699Z,-0.30
2018-03-06T05:25:01.926Z,-0.40
2018-03-06T05:27:30.813Z,-0.40
2018-03-06T05:29:58.976Z,-0.40
2018-03-06T05:32:27.112Z,-0.40
2018-03-06T05:34:55.713Z,-0.40
2018-03-06T05:37:24.631Z,-0.50
2018-03-06T05:39:52.800Z,-0.50
2018-03-06T05:42:22.272Z,-0.40
2018-03-06T05:44:52.400Z,-0.40
2018-03-06T05:47:20.980Z,-0.40
2018-03-06T05:49:49.151Z,-0.40
2018-03-06T05:52:17.275Z,-0.40
2018-03-06T05:54:45.460Z,-0.40
2018-03-06T05:57:14.367Z,-0.50
2018-03-06T05:59:42.536Z,-0.50
2018-03-06T06:02:11.133Z,-0.60
2018-03-06T06:04:39.300Z,-0.60
2018-03-06T06:07:07.913Z,-0.60
2018-03-06T06:09:36.840Z,-0.50
2018-03-06T06:12:05.812Z,-0.50
2018-03-06T06:14:33.971Z,-0.50
2018-03-06T06:17:02.104Z,-0.30
2018-03-06T06:19:31.545Z,-0.30
2018-03-06T06:21:59.669Z,-0.20
2018-03-06T06:24:29.205Z,0.00
2018-03-06T06:26:57.314Z,0.10
2018-03-06T06:29:26.223Z,0.40
2018-03-06T06:31:54.351Z,0.40
2018-03-06T06:34:22.495Z,0.90
2018-03-06T06:36:50.608Z,1.30
2018-03-06T06:39:18.773Z,1.50
2018-03-06T06:41:46.899Z,1.70
2018-03-06T06:44:14.995Z,1.90
2018-03-06T06:46:43.572Z,2.10
2018-03-06T06:49:11.706Z,2.50
2018-03-06T06:51:40.621Z,3.50
2018-03-06T06:54:08.832Z,3.50
2018-03-06T06:56:36.964Z,3.80
2018-03-06T06:59:06.248Z,4.10
2018-03-06T07:01:35.513Z,4.70
2018-03-06T07:04:03.634Z,4.70
2018-03-06T07:06:31.764Z,5.30
2018-03-06T07:09:01.051Z,5.90
2018-03-06T07:11:29.981Z,6.20
2018-03-06T07:13:58.862Z,7.40
2018-03-06T07:16:28.015Z,7.30
2018-03-06T07:18:56.138Z,7.80
2018-03-06T07:21:25.046Z,8.80
2018-03-06T07:23:53.155Z,8.70
2018-03-06T07:26:21.300Z,9.60
2018-03-06T07:28:49.420Z,10.50
2018-03-06T07:31:18.601Z,11.30
2018-03-06T07:33:46.721Z,12.00
2018-03-06T07:36:16.397Z,13.10
2018-03-06T07:38:44.533Z,13.10
2018-03-06T07:41:12.776Z,13.40
2018-03-06T07:43:41.651Z,14.20
2018-03-06T07:46:12.609Z,14.50
2018-03-06T07:48:41.494Z,15.00
2018-03-06T07:51:10.463Z,15.60
2018-03-06T07:53:38.547Z,15.50
2018-03-06T07:56:06.806Z,15.70
2018-03-06T07:58:34.950Z,16.30
2018-03-06T08:01:03.474Z,16.70
2018-03-06T08:03:31.602Z,16.90
2018-03-06T08:05:59.757Z,17.30
2018-03-06T08:08:27.881Z,17.40
2018-03-06T08:10:56.496Z,17.50
2018-03-06T08:13:24.631Z,17.50
2018-03-06T08:15:54.604Z,17.00
2018-03-06T08:18:22.731Z,17.00
2018-03-06T08:20:51.839Z,17.20
2018-03-06T08:23:20.975Z,17.70
2018-03-06T08:25:49.456Z,17.60
2018-03-06T08:28:17.588Z,17.50
2018-03-06T08:30:45.735Z,17.10
2018-03-06T08:33:13.847Z,17.10
2018-03-06T08:35:42.770Z,17.00
2018-03-06T08:38:10.900Z,17.00
2018-03-06T08:40:39.481Z,17.30
2018-03-06T08:43:07.626Z,17.50
2018-03-06T08:45:36.220Z,17.80
2018-03-06T08:48:04.388Z,18.00
2018-03-06T08:50:32.534Z,18.20
2018-03-06T08:53:00.658Z,18.60
2018-03-06T08:55:29.598Z,18.70
2018-03-06T08:57:58.189Z,18.20
2018-03-06T09:00:26.338Z,17.70
2018-03-06T09:02:55.234Z,17.20
2018-03-06T09:05:23.394Z,17.10
2018-03-06T09:07:52.294Z,16.50
2018-03-06T09:10:21.204Z,16.40
2018-03-06T09:12:49.334Z,16.40
2018-03-06T09:15:17.481Z,16.40
2018-03-06T09:17:45.605Z,16.00
2018-03-06T09:20:14.521Z,15.30
2018-03-06T09:22:42.653Z,15.30
2018-03-06T09:25:11.571Z,14.50
2018-03-06T09:27:39.714Z,14.40
2018-03-06T09:30:07.832Z,14.00
2018-03-06T09:32:37.112Z,13.70
2018-03-06T09:35:05.234Z,13.70
2018-03-06T09:37:33.390Z,13.90
2018-03-06T09:40:01.517Z,13.90
2018-03-06T09:42:30.437Z,13.80
2018-03-06T09:44:58.561Z,13.80
2018-03-06T09:47:26.717Z,13.70
2018-03-06T09:49:54.862Z,13.60
2018-03-06T09:52:23.022Z,13.80
2018-03-06T09:54:51.146Z,14.30
2018-03-06T09:57:19.299Z,14.50
2018-03-06T09:59:47.425Z,14.40
2018-03-06T10:02:15.905Z,14.00
2018-03-06T10:04:44.794Z,13.90
2018-03-06T10:07:13.754Z,14.10
2018-03-06T10:09:42.373Z,14.10
2018-03-06T10:12:11.326Z,14.20
2018-03-06T10:14:39.486Z,14.20
2018-03-06T10:17:07.677Z,14.00
2018-03-06T10:19:35.838Z,13.60
2018-03-06T10:22:05.301Z,13.10
2018-03-06T10:24:34.225Z,12.20
2018-03-06T10:27:02.418Z,12.10
2018-03-06T10:29:30.578Z,11.90
2018-03-06T10:31:58.770Z,12.00
2018-03-06T10:34:26.926Z,11.90
2018-03-06T10:36:55.119Z,11.80
2018-03-06T10:39:23.284Z,11.70
2018-03-06T10:41:51.466Z,11.60
2018-03-06T10:44:19.627Z,11.40
2018-03-06T10:46:47.815Z,11.30
2018-03-06T10:49:16.030Z,11.50
2018-03-06T10:51:44.982Z,11.50
2018-03-06T10:54:13.142Z,11.50
2018-03-06T10:56:41.337Z,11.60
2018-03-06T10:59:09.500Z,11.60
2018-03-06T11:01:37.687Z,11.70
2018-03-06T11:04:05.846Z,11.50
2018-03-06T11:06:34.001Z,11.50
2018-03-06T11:09:02.132Z,11.60
2018-03-06T11:11:30.277Z,11.80
2018-03-06T11:13:59.204Z,11.70
2018-03-06T11:16:28.130Z,11.60
2018-03-06T11:18:56.259Z,11.60
2018-03-06T11:21:24.850Z,11.70
2018-03-06T11:23:53.440Z,11.60
2018-03-06T11:26:22.349Z,11.60
2018-03-06T11:28:50.486Z,11.60
2018-03-06T11:31:19.135Z,11.70
2018-03-06T11:33:47.253Z,11.60
2018-03-06T11:36:16.161Z,11.80
2018-03-06T11:38:44.277Z,11.80
2018-03-06T11:41:12.441Z,11.70
2018-03-06T11:43:40.569Z,11.90
2018-03-06T11:46:09.481Z,12.10
2018-03-06T11:48:37.610Z,12.10
2018-03-06T11:51:05.756Z,12.10
2018-03-06T11:53:33.876Z,12.10
2018-03-06T11:56:02.815Z,12.20
2018-03-06T11:58:31.708Z,12.30
2018-03-06T12:00:59.832Z,12.30
2018-03-06T12:03:28.741Z,12.20
2018-03-06T12:05:56.912Z,12.20
2018-03-06T12:08:25.056Z,12.20
2018-03-06T12:10:53.189Z,12.10
2018-03-06T12:13:21.332Z,12.30
2018-03-06T12:15:49.454Z,12.30
2018-03-06T12:18:17.597Z,12.50
2018-03-06T12:20:46.424Z,12.50
2018-03-06T12:23:14.577Z,12.60
2018-03-06T12:25:42.705Z,12.60
2018-03-06T12:28:11.624Z,12.60
2018-03-06T12:30:39.753Z,12.50
2018-03-06T12:33:07.898Z,12.50
2018-03-06T12:35:36.021Z,12.50
2018-03-06T12:38:04.180Z,12.40
2018-03-06T12:40:33.089Z,12.50
2018-03-06T12:43:01.243Z,12.50
2018-03-06T12:45:30.134Z,12.60
2018-03-06T12:47:59.052Z,12.50
2018-03-06T12:50:27.185Z,12.40
2018-03-06T12:52:55.337Z,12.30
2018-03-06T12:55:23.462Z,12.40
2018-03-06T12:57:51.618Z,12.50
2018-03-06T13:00:20.513Z,12.30
2018-03-06T13:02:49.445Z,12.40
2018-03-06T13:05:17.592Z,12.40
2018-03-06T13:07:45.736Z,12.50
2018-03-06T13:10:13.861Z,12.40
2018-03-06T13:12:42.014Z,12.30
2018-03-06T13:15:10.141Z,12.00
2018-03-06T13:17:39.125Z,12.00
2018-03-06T13:20:07.249Z,11.90
2018-03-06T13:22:36.158Z,11.80
2018-03-06T13:25:04.282Z,11.70
2018-03-06T13:27:32.440Z,11.70
2018-03-06T13:30:00.695Z,11.80
2018-03-06T13:32:28.896Z,11.80
2018-03-06T13:34:57.153Z,11.80
2018-03-06T13:37:26.132Z,11.80
2018-03-06T13:39:54.518Z,11.80
2018-03-06T13:42:22.880Z,11.80
2018-03-06T13:44:51.722Z,11.90
2018-03-06T13:47:19.874Z,11.70
2018-03-06T13:49:47.996Z,11.70
2018-03-06T13:52:16.961Z,11.50
2018-03-06T13:54:45.054Z,11.60
2018-03-06T13:57:14.000Z,11.50
2018-03-06T13:59:42.177Z,11.50
2018-03-06T14:02:10.309Z,11.30
2018-03-06T14:04:38.437Z,11.20
2018-03-06T14:07:06.602Z,11.30
2018-03-06T14:09:34.734Z,11.40
2018-03-06T14:12:02.906Z,11.40
2018-03-06T14:14:31.037Z,11.30
2018-03-06T14:16:59.195Z,11.20
2018-03-06T14:19:28.085Z,11.20
2018-03-06T14:21:56.229Z,11.20
2018-03-06T14:24:24.379Z,11.20
2018-03-06T14:26:52.505Z,11.20
2018-03-06T14:29:20.665Z,11.10
2018-03-06T14:31:49.657Z,10.90
2018-03-06T14:34:17.813Z,10.70
2018-03-06T14:36:45.950Z,10.50
2018-03-06T14:39:14.874Z,10.00
2018-03-06T14:41:43.001Z,10.00
2018-03-06T14:44:11.168Z,10.00
2018-03-06T14:46:39.293Z,9.90
2018-03-06T14:49:07.442Z,9.80
2018-03-06T14:51:36.333Z,9.70
2018-03-06T14:54:05.249Z,9.70
2018-03-06T14:56:33.368Z,9.70
2018-03-06T14:59:01.574Z,9.70
2018-03-06T15:01:30.556Z,9.70
2018-03-06T15:03:58.707Z,9.70
2018-03-06T15:06:26.837Z,9.60
2018-03-06T15:08:54.981Z,9.50
2018-03-06T15:11:23.870Z,9.30
2018-03-06T15:13:53.081Z,9.30
2018-03-06T15:16:21.981Z,9.30
2018-03-06T15:18:50.130Z,9.30
2018-03-06T15:21:18.263Z,9.10
2018-03-06T15:23:47.850Z,8.90
2018-03-06T15:26:15.976Z,8.90
2018-03-06T15:28:44.347Z,8.90
2018-03-06T15:31:12.558Z,9.00
2018-03-06T15:33:42.149Z,9.00
2018-03-06T15:36:13.358Z,8.70
2018-03-06T15:38:42.106Z,8.70
2018-03-06T15:41:13.845Z,8.40
2018-03-06T15:43:43.833Z,8.30
2018-03-06T15:46:13.744Z,8.20
2018-03-06T15:48:42.770Z,8.20
2018-03-06T15:51:12.361Z,8.20
2018-03-06T15:53:41.304Z,8.20
2018-03-06T15:56:09.425Z,8.20
2018-03-06T15:58:38.733Z,8.20
2018-03-06T16:01:07.321Z,8.20
2018-03-06T16:03:35.943Z,8.30
2018-03-06T16:06:04.266Z,8.30
2018-03-06T16:08:32.429Z,8.30
2018-03-06T16:11:00.562Z,8.30
2018-03-06T16:13:28.706Z,8.30
2018-03-06T16:15:57.611Z,8.10
2018-03-06T16:18:26.523Z,8.00
2018-03-06T16:20:54.705Z,8.00
2018-03-06T16:23:22.869Z,8.00
2018-03-06T16:25:50.989Z,7.70
2018-03-06T16:28:19.557Z,7.50
2018-03-06T16:30:47.674Z,7.40
2018-03-06T16:33:16.619Z,7.40
2018-03-06T16:35:44.745Z,7.40
2018-03-06T16:38:13.658Z,7.30
2018-03-06T16:40:42.277Z,7.30
2018-03-06T16:43:12.368Z,7.10
2018-03-06T16:45:40.506Z,7.10
2018-03-06T16:48:09.425Z,7.00
2018-03-06T16:50:37.561Z,7.00
2018-03-06T16:53:06.141Z,7.00
2018-03-06T16:55:34.742Z,7.00
2018-03-06T16:58:03.666Z,6.90
2018-03-06T17:00:31.792Z,6.80
2018-03-06T17:02:59.914Z,6.80
2018-03-06T17:05:28.077Z,6.70
2018-03-06T17:07:56.842Z,6.60
2018-03-06T17:10:25.753Z,6.30
2018-03-06T17:12:53.889Z,6.20
2018-03-06T17:15:23.962Z,6.10
2018-03-06T17:17:52.081Z,6.10
2018-03-06T17:20:20.248Z,6.10
2018-03-06T17:22:48.381Z,6.00
2018-03-06T17:25:16.524Z,5.90
2018-03-06T17:27:45.906Z,5.80
2018-03-06T17:30:14.049Z,5.70
2018-03-06T17:32:44.216Z,5.60
2018-03-06T17:35:13.129Z,5.60
2018-03-06T17:37:42.714Z,5.50
2018-03-06T17:40:11.654Z,5.50
2018-03-06T17:42:40.562Z,5.60
2018-03-06T17:45:10.239Z,5.60
2018-03-06T17:47:38.376Z,5.60
2018-03-06T17:50:07.281Z,5.40
2018-03-06T17:52:37.409Z,5.50
2018-03-06T17:55:05.549Z,5.50
2018-03-06T17:57:33.726Z,5.60
2018-03-06T18:00:02.401Z,5.40
2018-03-06T18:02:35.858Z,5.20
2018-03-06T18:05:04.014Z,5.20
2018-03-06T18:07:32.136Z,5.10
2018-03-06T18:10:00.292Z,5.00
2018-03-06T18:12:30.814Z,4.80
2018-03-06T18:14:58.956Z,4.80
2018-03-06T18:17:27.848Z,4.80
2018-03-06T18:19:56.903Z,4.80
2018-03-06T18:22:26.825Z,4.80
2018-03-06T18:24:54.977Z,4.60
2018-03-06T18:27:23.881Z,4.60
2018-03-06T18:29:52.050Z,4.60
2018-03-06T18:32:20.166Z,4.70
2018-03-06T18:34:49.079Z,4.70
2018-03-06T18:37:19.279Z,4.70
2018-03-06T18:39:49.253Z,4.70
2018-03-06T18:42:17.390Z,4.70
2018-03-06T18:44:46.923Z,4.70
2018-03-06T18:47:15.045Z,4.50
2018-03-06T18:50:05.669Z,4.40
2018-03-06T18:52:33.784Z,4.40
2018-03-06T18:55:01.929Z,4.40
2018-03-06T18:57:30.089Z,4.40
2018-03-06T19:03:10.818Z,4.30
2018-03-06T19:05:50.905Z,4.30
2018-03-06T19:08:19.813Z,4.30
2018-03-06T19:10:48.309Z,4.30
2018-03-06T19:13:16.420Z,4.40
2018-03-06T19:15:45.877Z,4.40
2018-03-06T19:18:15.432Z,4.30
2018-03-06T19:20:43.584Z,4.40
2018-03-06T19:23:11.725Z,4.40
2018-03-06T19:25:40.309Z,4.40
2018-03-06T19:28:08.454Z,4.50
2018-03-06T19:30:37.722Z,4.50
2018-03-06T19:33:05.845Z,4.40
2018-03-06T19:35:34.761Z,4.30
2018-03-06T19:38:02.922Z,4.30
2018-03-06T19:40:32.396Z,4.30
2018-03-06T19:43:01.841Z,4.30
2018-03-06T19:45:30.038Z,4.30
2018-03-06T19:47:58.163Z,4.20
2018-03-06T19:50:27.031Z,4.20
2018-03-06T19:52:55.153Z,4.10
2018-03-06T19:55:23.793Z,4.20
2018-03-06T19:57:51.954Z,4.20
2018-03-06T20:00:21.721Z,3.90
2018-03-06T20:02:49.859Z,3.90
2018-03-06T20:05:18.027Z,3.80
2018-03-06T20:07:46.307Z,3.80
2018-03-06T20:10:15.411Z,3.60
2018-03-06T20:12:44.326Z,3.70
2018-03-06T20:15:16.301Z,3.70
2018-03-06T20:17:44.424Z,3.80
2018-03-06T20:20:13.358Z,3.90
2018-03-06T20:22:42.312Z,3.90
2018-03-06T20:25:16.227Z,4.00
2018-03-06T20:27:45.148Z,3.90
2018-03-06T20:30:19.372Z,3.90
2018-03-06T20:32:53.332Z,3.90
2018-03-06T20:35:21.489Z,3.90
2018-03-06T20:37:49.658Z,3.70
2018-03-06T20:40:23.521Z,3.60
2018-03-06T20:42:51.640Z,3.70
2018-03-06T20:45:19.766Z,3.80
2018-03-06T20:47:47.921Z,3.70
2018-03-06T20:50:18.098Z,3.70
2018-03-06T20:52:52.000Z,3.60
2018-03-06T20:55:20.134Z,3.60
2018-03-06T20:57:49.046Z,3.60
2018-03-06T21:00:17.178Z,3.60
2018-03-06T21:02:45.337Z,3.50
2018-03-06T21:05:13.477Z,3.60
2018-03-06T21:07:41.617Z,3.60
2018-03-06T21:10:10.509Z,3.60
2018-03-06T21:12:39.411Z,3.50
2018-03-06T21:15:07.996Z,3.50
2018-03-06T21:17:36.904Z,3.40
2018-03-06T21:20:05.024Z,3.40
2018-03-06T21:22:34.372Z,3.50
2018-03-06T21:25:02.543Z,3.50
2018-03-06T21:27:30.684Z,3.50
2018-03-06T21:29:58.804Z,3.50
2018-03-06T21:32:26.966Z,3.50
2018-03-06T21:34:55.105Z,3.50
2018-03-06T21:37:23.241Z,3.50
2018-03-06T21:39:51.449Z,3.50
2018-03-06T21:42:19.998Z,3.50
2018-03-06T21:44:48.123Z,3.50
2018-03-06T21:47:17.033Z,3.50
2018-03-06T21:49:45.154Z,3.50
2018-03-06T21:52:13.356Z,3.60
2018-03-06T21:54:42.325Z,3.30
2018-03-06T21:57:10.969Z,3.20
2018-03-06T21:59:39.128Z,3.20
2018-03-06T22:02:07.277Z,3.30
2018-03-06T22:04:36.200Z,3.10
2018-03-06T22:07:04.360Z,2.90
2018-03-06T22:09:33.241Z,3.20
2018-03-06T22:12:02.149Z,3.20
2018-03-06T22:14:30.852Z,3.20
2018-03-06T22:16:59.000Z,3.10
2018-03-06T22:19:27.978Z,2.90
2018-03-06T22:21:56.920Z,3.20
2018-03-06T22:24:25.576Z,3.10
2018-03-06T22:26:53.725Z,3.20
2018-03-06T22:29:21.853Z,3.20
2018-03-06T22:31:50.501Z,3.10
2018-03-06T22:34:19.392Z,2.90
2018-03-06T22:36:48.295Z,3.10
2018-03-06T22:39:16.415Z,3.10
2018-03-06T22:41:44.565Z,2.90
2018-03-06T22:44:12.693Z,2.60
2018-03-06T22:46:41.597Z,2.50
2018-03-06T22:49:10.485Z,2.60
2018-03-06T22:51:41.555Z,2.50
2018-03-06T22:54:09.687Z,2.50
2018-03-06T22:56:38.608Z,2.70
2018-03-06T22:59:07.424Z,2.70
2018-03-06T23:01:36.388Z,2.70
2018-03-06T23:04:04.517Z,2.70
2018-03-06T23:06:32.677Z,2.80
2018-03-06T23:09:00.812Z,2.90
2018-03-06T23:11:28.967Z,2.90
2018-03-06T23:13:57.830Z,2.90
2018-03-06T23:16:25.941Z,3.00
2018-03-06T23:18:54.119Z,2.90
2018-03-06T23:21:22.271Z,2.80
2018-03-06T23:23:51.658Z,2.90
2018-03-06T23:26:19.766Z,2.90
2018-03-06T23:28:47.905Z,3.00
2018-03-06T23:31:16.005Z,3.00
2018-03-06T23:33:44.934Z,3.10
2018-03-06T23:36:14.159Z,3.20
2018-03-06T23:38:42.296Z,3.10
2018-03-06T23:41:10.399Z,3.00
2018-03-06T23:43:38.610Z,3.00
2018-03-06T23:46:07.494Z,3.10
2018-03-06T23:48:36.398Z,3.00
2018-03-06T23:51:05.273Z,3.00
2018-03-06T23:53:34.167Z,3.00
2018-03-06T23:56:02.749Z,3.00
2018-03-06T23:58:31.658Z,3.00
